< < Back
Terminal Aerodrome Forecast


Current Version              Previous Versions:   1  2  3  4  5  6  7  8  9  

Terminal Aerodrome Forecast

412
FTUS42 KMLB 300906 AAA
TAFMCO
TAF AMD
KMCO 300906Z 3009/3106 19002KT P6SM SCT250
     FM301400 19004KT P6SM FEW030
     FM302000 16005KT P6SM VCTS SCT050CB
     FM310100 13004KT P6SM SCT050 BKN100=

Latest METAR

813
SAUS70 KWBC 300900 RRD
MTRMCO
METAR KMCO 300853Z 00000KT 10SM SCT250 24/23 A3001 RMK AO2 SLP162
T02440233 56009


USA.gov is the U.S. government's official web portal to all federal, state and local government web resources and services.